Time;durP1;ratioP1;P1;durP2;ratioP2;P2;SDS_P1;SDS_P2;PMS_P1;PMS_P2;Temp;Humidity;BMP_temperature;BMP_pressure;BME280_temperature;BME280_humidity;BME280_pressure;Samples;Min_cycle;Max_cycle;Signal;HPM_P1;HPM_P2
2023/04/03 00:00:38;;;;;;;3.73;2.57;;;;;;;;;;6251101;28;20199;-60
2023/04/03 00:03:41;;;;;;;2.37;1.93;;;;;;;;;;6271247;28;20224;-59
2023/04/03 00:06:42;;;;;;;2.37;1.80;;;;;;;;;;6289786;28;20193;-59
2023/04/03 00:09:43;;;;;;;1.97;1.70;;;;;;;;;;6289754;28;20221;-60
2023/04/03 00:12:44;;;;;;;2.70;2.07;;;;;;;;;;6254761;28;20255;-61
2023/04/03 00:15:45;;;;;;;2.27;1.77;;;;;;;;;;6254921;28;20235;-60
2023/04/03 00:18:46;;;;;;;2.30;1.70;;;;;;;;;;6274286;28;20269;-60
2023/04/03 00:21:47;;;;;;;1.83;1.67;;;;;;;;;;6284174;28;21997;-61
2023/04/03 00:24:48;;;;;;;1.30;1.20;;;;;;;;;;6270000;28;20204;-61
2023/04/03 00:27:49;;;;;;;1.63;1.53;;;;;;;;;;6256411;28;20196;-61
2023/04/03 00:30:51;;;;;;;1.87;1.60;;;;;;;;;;6271290;28;20189;-60
2023/04/03 00:33:52;;;;;;;1.57;1.47;;;;;;;;;;6275676;28;20248;-60
2023/04/03 00:36:53;;;;;;;2.13;1.90;;;;;;;;;;6289201;28;20237;-60
2023/04/03 00:39:54;;;;;;;3.20;1.80;;;;;;;;;;6235851;28;20276;-60
2023/04/03 00:42:56;;;;;;;1.67;1.40;;;;;;;;;;6244262;28;20201;-59
2023/04/03 00:45:58;;;;;;;1.67;1.30;;;;;;;;;;6268510;28;20190;-60
2023/04/03 00:48:59;;;;;;;1.63;1.53;;;;;;;;;;6265245;28;20185;-59
2023/04/03 00:52:00;;;;;;;1.33;1.23;;;;;;;;;;6258852;28;20347;-60
2023/04/03 00:55:04;;;;;;;1.50;1.40;;;;;;;;;;6252744;28;20644;-59
2023/04/03 00:58:07;;;;;;;1.43;1.33;;;;;;;;;;6299793;28;20290;-59
2023/04/03 01:01:09;;;;;;;1.60;1.50;;;;;;;;;;6279840;28;20190;-60
2023/04/03 01:04:29;;;;;;;2.20;1.47;;;;;;;;;;6289062;28;20243;-60
2023/04/03 01:07:31;;;;;;;1.87;1.30;;;;;;;;;;6257865;28;20202;-59
2023/04/03 01:10:32;;;;;;;1.97;1.63;;;;;;;;;;6276098;28;20217;-60
2023/04/03 01:13:33;;;;;;;1.73;1.63;;;;;;;;;;6259816;28;20228;-59
2023/04/03 01:16:35;;;;;;;1.60;1.50;;;;;;;;;;6264046;28;20229;-59
2023/04/03 01:19:37;;;;;;;2.37;1.70;;;;;;;;;;6276092;28;20196;-59
2023/04/03 01:22:59;;;;;;;1.53;1.43;;;;;;;;;;6292968;28;20228;-59
2023/04/03 01:26:00;;;;;;;2.20;1.70;;;;;;;;;;6293566;28;20194;-59
2023/04/03 01:29:02;;;;;;;1.63;1.43;;;;;;;;;;6259918;28;20204;-59
2023/04/03 01:32:03;;;;;;;1.90;1.70;;;;;;;;;;6257713;28;20245;-60
2023/04/03 01:35:04;;;;;;;2.07;1.87;;;;;;;;;;6291533;28;20252;-60
2023/04/03 01:38:06;;;;;;;1.77;1.60;;;;;;;;;;6252798;28;20211;-60
2023/04/03 01:41:07;;;;;;;1.93;1.83;;;;;;;;;;6259355;28;20214;-60
2023/04/03 01:44:08;;;;;;;1.70;1.60;;;;;;;;;;6253157;28;20248;-61
2023/04/03 01:47:09;;;;;;;1.70;1.50;;;;;;;;;;6291486;28;20204;-60
2023/04/03 01:50:10;;;;;;;1.60;1.50;;;;;;;;;;6292353;28;20193;-60
2023/04/03 01:53:12;;;;;;;1.67;1.57;;;;;;;;;;6253248;28;20194;-60
2023/04/03 01:56:13;;;;;;;1.60;1.50;;;;;;;;;;6267457;28;20248;-60
2023/04/03 01:59:16;;;;;;;1.90;1.80;;;;;;;;;;6287911;28;20220;-60
2023/04/03 02:02:20;;;;;;;3.10;1.80;;;;;;;;;;6258357;28;20213;-60
2023/04/03 02:05:21;;;;;;;1.77;1.50;;;;;;;;;;6272499;28;20186;-60
2023/04/03 02:08:22;;;;;;;2.47;1.80;;;;;;;;;;6256774;28;20255;-60
2023/04/03 02:11:23;;;;;;;1.60;1.50;;;;;;;;;;6265636;28;20193;-60
2023/04/03 02:14:24;;;;;;;2.23;1.77;;;;;;;;;;6259359;28;20289;-59
2023/04/03 02:17:25;;;;;;;2.20;1.20;;;;;;;;;;6289503;28;20202;-60
2023/04/03 02:20:26;;;;;;;1.70;1.40;;;;;;;;;;6274743;28;20194;-59
2023/04/03 02:23:27;;;;;;;1.37;1.27;;;;;;;;;;6249119;28;20182;-59
2023/04/03 02:26:28;;;;;;;1.70;1.53;;;;;;;;;;6266373;28;20185;-60
2023/04/03 02:29:29;;;;;;;2.17;1.63;;;;;;;;;;6250374;28;20197;-59
2023/04/03 02:32:30;;;;;;;2.07;1.77;;;;;;;;;;6268809;28;20233;-59
2023/04/03 02:35:31;;;;;;;1.67;1.57;;;;;;;;;;6269783;28;20189;-60
2023/04/03 02:38:33;;;;;;;1.47;1.37;;;;;;;;;;6269924;28;20270;-60
2023/04/03 02:41:36;;;;;;;1.63;1.40;;;;;;;;;;6291235;28;20240;-59
2023/04/03 02:44:38;;;;;;;1.27;1.17;;;;;;;;;;6285837;28;20205;-60
2023/04/03 02:47:39;;;;;;;1.50;1.40;;;;;;;;;;6274635;28;20193;-59
2023/04/03 02:50:40;;;;;;;1.43;1.33;;;;;;;;;;6264166;28;20197;-59
2023/04/03 02:53:41;;;;;;;1.47;1.37;;;;;;;;;;6289492;28;20192;-59
2023/04/03 02:56:42;;;;;;;1.80;1.40;;;;;;;;;;6291763;28;20213;-59
2023/04/03 02:59:44;;;;;;;1.87;1.50;;;;;;;;;;6274559;28;20189;-60
2023/04/03 03:02:45;;;;;;;3.17;1.47;;;;;;;;;;6255952;28;20190;-59
2023/04/03 03:05:47;;;;;;;1.73;1.47;;;;;;;;;;6274083;28;20219;-59
2023/04/03 03:08:49;;;;;;;1.60;1.50;;;;;;;;;;6248078;28;20598;-60
2023/04/03 03:11:50;;;;;;;1.23;1.13;;;;;;;;;;6257206;28;20193;-59
2023/04/03 03:14:51;;;;;;;1.50;1.40;;;;;;;;;;6288967;28;20190;-60
2023/04/03 03:17:52;;;;;;;1.70;1.37;;;;;;;;;;6261990;28;20300;-60
2023/04/03 03:20:54;;;;;;;1.77;1.33;;;;;;;;;;6243907;28;20246;-60
2023/04/03 03:23:55;;;;;;;1.60;1.40;;;;;;;;;;6257787;28;20197;-60
2023/04/03 03:26:56;;;;;;;2.03;1.50;;;;;;;;;;6273877;28;20189;-60
2023/04/03 03:29:57;;;;;;;1.40;1.30;;;;;;;;;;6288517;28;20539;-60
2023/04/03 03:32:58;;;;;;;1.30;1.20;;;;;;;;;;6249579;28;20242;-60
2023/04/03 03:35:59;;;;;;;1.53;1.40;;;;;;;;;;6257286;28;20201;-59
2023/04/03 03:39:00;;;;;;;1.53;1.40;;;;;;;;;;6290199;28;20240;-58
2023/04/03 03:42:01;;;;;;;1.60;1.50;;;;;;;;;;6249078;28;20292;-60
2023/04/03 03:45:02;;;;;;;1.50;1.40;;;;;;;;;;6273175;28;20193;-60
2023/04/03 03:48:03;;;;;;;1.67;1.53;;;;;;;;;;6288272;28;20189;-59
2023/04/03 03:51:04;;;;;;;2.23;1.60;;;;;;;;;;6265807;28;20205;-60
2023/04/03 03:54:05;;;;;;;1.80;1.20;;;;;;;;;;6244244;28;20284;-60
2023/04/03 03:57:07;;;;;;;1.40;1.13;;;;;;;;;;6289199;28;20248;-60
2023/04/03 04:00:08;;;;;;;1.23;1.13;;;;;;;;;;6289750;28;20218;-60
2023/04/03 04:03:09;;;;;;;2.80;1.37;;;;;;;;;;6256939;28;20193;-59
2023/04/03 04:06:10;;;;;;;1.20;1.10;;;;;;;;;;6272194;28;20189;-59
2023/04/03 04:09:11;;;;;;;1.77;1.57;;;;;;;;;;6254653;28;20193;-59
2023/04/03 04:12:12;;;;;;;1.20;1.10;;;;;;;;;;6264143;28;20228;-59
2023/04/03 04:15:13;;;;;;;1.30;1.20;;;;;;;;;;6254978;28;20231;-59
2023/04/03 04:18:14;;;;;;;1.13;1.03;;;;;;;;;;6278092;28;20264;-59
2023/04/03 04:21:15;;;;;;;1.50;1.30;;;;;;;;;;6256135;28;20261;-60
2023/04/03 04:24:16;;;;;;;1.53;1.20;;;;;;;;;;6256494;28;20197;-59
2023/04/03 04:27:18;;;;;;;1.27;1.17;;;;;;;;;;6255398;28;20193;-59
2023/04/03 04:30:19;;;;;;;1.70;1.57;;;;;;;;;;6248668;28;20200;-60
2023/04/03 04:33:20;;;;;;;1.20;1.10;;;;;;;;;;6255367;28;20229;-59
2023/04/03 04:36:21;;;;;;;1.07;1.07;;;;;;;;;;6254904;28;20197;-58
2023/04/03 04:39:22;;;;;;;1.10;1.00;;;;;;;;;;6289120;28;20217;-59
2023/04/03 04:42:23;;;;;;;2.30;1.17;;;;;;;;;;6245851;28;20200;-60
2023/04/03 04:45:24;;;;;;;2.73;1.50;;;;;;;;;;6253124;28;20209;-59
2023/04/03 04:48:25;;;;;;;2.30;1.60;;;;;;;;;;6251494;28;20254;-59
2023/04/03 04:51:26;;;;;;;1.67;1.30;;;;;;;;;;6249035;28;20195;-60
2023/04/03 04:54:27;;;;;;;2.20;1.53;;;;;;;;;;6285825;28;20201;-59
2023/04/03 04:57:28;;;;;;;2.10;1.53;;;;;;;;;;6277739;28;20216;-60
2023/04/03 05:00:29;;;;;;;1.47;1.37;;;;;;;;;;6268164;28;20204;-60
2023/04/03 05:03:31;;;;;;;2.03;1.37;;;;;;;;;;6289636;28;20182;-59
2023/04/03 05:06:32;;;;;;;1.33;1.23;;;;;;;;;;6288234;28;20217;-59
2023/04/03 05:09:33;;;;;;;1.63;1.53;;;;;;;;;;6287307;28;20192;-59
2023/04/03 05:12:35;;;;;;;2.40;2.07;;;;;;;;;;6254188;28;20285;-59
2023/04/03 05:15:36;;;;;;;2.53;1.77;;;;;;;;;;6263377;28;20308;-58
2023/04/03 05:18:37;;;;;;;1.77;1.43;;;;;;;;;;6268807;28;20739;-59
2023/04/03 05:21:38;;;;;;;1.43;1.30;;;;;;;;;;6286509;28;20262;-58
2023/04/03 05:24:39;;;;;;;2.70;1.57;;;;;;;;;;6251619;28;20196;-59
2023/04/03 05:27:40;;;;;;;3.20;1.30;;;;;;;;;;6269565;28;20198;-59
2023/04/03 05:30:41;;;;;;;1.53;1.20;;;;;;;;;;6255084;28;20255;-59
2023/04/03 05:33:42;;;;;;;3.17;1.57;;;;;;;;;;6254759;28;20238;-58
2023/04/03 05:36:43;;;;;;;2.80;1.30;;;;;;;;;;6256125;28;20197;-58
2023/04/03 05:39:45;;;;;;;2.53;1.17;;;;;;;;;;6285225;28;20186;-58
2023/04/03 05:42:46;;;;;;;1.63;1.23;;;;;;;;;;6257089;28;20192;-58
2023/04/03 05:45:47;;;;;;;1.97;1.60;;;;;;;;;;6251359;28;20281;-59
2023/04/03 05:48:48;;;;;;;2.33;1.40;;;;;;;;;;6270636;28;20812;-58
2023/04/03 05:51:51;;;;;;;1.90;1.50;;;;;;;;;;6256004;28;20225;-58
2023/04/03 05:54:52;;;;;;;1.53;1.30;;;;;;;;;;6277479;28;20279;-59
2023/04/03 05:57:53;;;;;;;2.10;1.20;;;;;;;;;;6283238;28;20232;-59
2023/04/03 06:00:55;;;;;;;1.80;1.30;;;;;;;;;;6288926;28;20196;-60
2023/04/03 06:03:58;;;;;;;1.47;1.20;;;;;;;;;;6255162;28;20667;-59
2023/04/03 06:06:59;;;;;;;1.70;1.37;;;;;;;;;;6296901;28;20219;-59
2023/04/03 06:10:01;;;;;;;1.37;1.27;;;;;;;;;;6292560;28;20194;-59
2023/04/03 06:13:02;;;;;;;1.33;1.23;;;;;;;;;;6273753;28;20201;-59
2023/04/03 06:16:04;;;;;;;1.87;1.27;;;;;;;;;;6290933;28;20190;-58
2023/04/03 06:19:05;;;;;;;1.70;1.10;;;;;;;;;;6257071;28;20312;-59
2023/04/03 06:22:06;;;;;;;1.63;1.30;;;;;;;;;;6273570;28;20186;-58
2023/04/03 06:25:09;;;;;;;1.87;1.47;;;;;;;;;;6290103;28;20193;-59
2023/04/03 06:28:10;;;;;;;1.67;1.40;;;;;;;;;;6286389;28;20186;-59
2023/04/03 06:31:11;;;;;;;2.00;1.20;;;;;;;;;;6257607;28;20222;-59
2023/04/03 06:34:12;;;;;;;1.33;1.23;;;;;;;;;;6263901;28;20237;-60
2023/04/03 06:37:21;;;;;;;5.07;1.27;;;;;;;;;;6266871;28;20205;-60
2023/04/03 06:40:23;;;;;;;1.73;1.40;;;;;;;;;;6290799;28;20186;-60
2023/04/03 06:43:25;;;;;;;2.10;1.37;;;;;;;;;;6272095;28;20190;-61
2023/04/03 06:46:26;;;;;;;3.03;1.83;;;;;;;;;;6272045;28;20190;-60
2023/04/03 06:49:28;;;;;;;1.50;1.03;;;;;;;;;;6254621;28;20201;-60
2023/04/03 06:52:29;;;;;;;1.37;1.27;;;;;;;;;;6286738;28;20199;-58
2023/04/03 06:55:31;;;;;;;1.83;1.20;;;;;;;;;;6267766;28;20205;-59
2023/04/03 06:58:32;;;;;;;1.57;1.20;;;;;;;;;;6259318;28;20686;-59
2023/04/03 07:01:33;;;;;;;1.37;1.07;;;;;;;;;;6266737;28;20247;-59
2023/04/03 07:04:34;;;;;;;2.07;1.43;;;;;;;;;;6266039;28;20185;-59
2023/04/03 07:07:35;;;;;;;1.20;1.10;;;;;;;;;;6245892;28;20190;-58
2023/04/03 07:10:38;;;;;;;2.40;1.10;;;;;;;;;;6278397;28;20197;-59
2023/04/03 07:13:39;;;;;;;1.43;1.23;;;;;;;;;;6289988;28;20189;-59
2023/04/03 07:16:40;;;;;;;1.10;1.00;;;;;;;;;;6272497;28;20197;-59
2023/04/03 07:19:41;;;;;;;1.70;1.13;;;;;;;;;;6283421;28;20185;-59
2023/04/03 07:22:42;;;;;;;1.20;1.00;;;;;;;;;;6288793;28;20293;-60
2023/04/03 07:25:44;;;;;;;1.47;1.10;;;;;;;;;;6272031;28;20185;-59
2023/04/03 07:28:47;;;;;;;1.67;1.57;;;;;;;;;;6254257;28;20216;-60
2023/04/03 07:31:49;;;;;;;1.57;1.43;;;;;;;;;;6266019;28;20320;-60
2023/04/03 07:34:50;;;;;;;1.10;1.00;;;;;;;;;;6287951;28;20189;-59
2023/04/03 07:37:51;;;;;;;1.17;1.10;;;;;;;;;;6279745;28;20216;-59
2023/04/03 07:40:52;;;;;;;1.67;1.20;;;;;;;;;;6253241;28;20224;-59
2023/04/03 07:43:54;;;;;;;1.67;1.20;;;;;;;;;;6269799;28;20229;-59
2023/04/03 07:46:55;;;;;;;1.40;1.27;;;;;;;;;;6258418;28;20194;-60
2023/04/03 07:49:57;;;;;;;2.47;1.53;;;;;;;;;;6287037;28;20326;-60
2023/04/03 07:52:58;;;;;;;1.20;1.10;;;;;;;;;;6253598;28;20206;-60
2023/04/03 07:55:59;;;;;;;1.87;1.40;;;;;;;;;;6271180;28;20193;-60
2023/04/03 07:59:00;;;;;;;1.23;1.10;;;;;;;;;;6269757;28;20218;-61
2023/04/03 08:02:01;;;;;;;1.30;1.20;;;;;;;;;;6243544;28;20252;-61
2023/04/03 08:05:03;;;;;;;1.73;1.50;;;;;;;;;;6270741;28;20186;-61
2023/04/03 08:08:04;;;;;;;1.67;1.27;;;;;;;;;;6273523;28;20193;-60
2023/04/03 08:11:06;;;;;;;1.70;1.37;;;;;;;;;;6286529;28;20209;-60
2023/04/03 08:14:07;;;;;;;1.83;1.03;;;;;;;;;;6241647;28;20305;-59
2023/04/03 08:17:11;;;;;;;1.40;1.30;;;;;;;;;;6285873;28;20248;-60
2023/04/03 08:20:12;;;;;;;2.00;1.27;;;;;;;;;;6270197;28;20319;-59
2023/04/03 08:23:15;;;;;;;1.10;1.00;;;;;;;;;;6248393;28;20197;-59
2023/04/03 08:26:16;;;;;;;1.03;0.93;;;;;;;;;;6266714;28;20201;-59
2023/04/03 08:29:18;;;;;;;1.77;0.97;;;;;;;;;;6266450;28;20212;-61
2023/04/03 08:32:19;;;;;;;0.80;0.80;;;;;;;;;;6270430;28;20553;-60
2023/04/03 08:35:20;;;;;;;1.10;0.93;;;;;;;;;;6243484;28;20201;-60
2023/04/03 08:38:21;;;;;;;4.13;1.40;;;;;;;;;;6252859;28;20209;-59
2023/04/03 08:41:30;;;;;;;1.40;1.27;;;;;;;;;;6287180;28;20184;-60
2023/04/03 08:44:46;;;;;;;1.80;0.80;;;;;;;;;;6291568;28;20198;-60
2023/04/03 08:47:51;;;;;;;1.20;0.97;;;;;;;;;;6273164;28;20194;-60
2023/04/03 08:50:57;;;;;;;0.87;0.80;;;;;;;;;;6283206;28;20209;-60
2023/04/03 08:53:58;;;;;;;1.27;1.10;;;;;;;;;;6285752;28;20209;-60
2023/04/03 08:57:01;;;;;;;1.00;0.80;;;;;;;;;;6270314;28;20213;-58
2023/04/03 09:00:07;;;;;;;0.80;0.80;;;;;;;;;;6254827;28;20246;-59
2023/04/03 09:03:12;;;;;;;0.70;0.70;;;;;;;;;;6278329;28;20240;-59
2023/04/03 09:06:14;;;;;;;1.77;1.00;;;;;;;;;;6265937;28;20269;-60
2023/04/03 09:09:35;;;;;;;0.70;0.70;;;;;;;;;;6270378;28;20200;-59
2023/04/03 09:12:42;;;;;;;3.33;1.23;;;;;;;;;;6270870;28;20247;-58
2023/04/03 09:15:44;;;;;;;0.67;0.67;;;;;;;;;;6274347;28;20244;-59
2023/04/03 09:18:47;;;;;;;1.07;0.97;;;;;;;;;;6274015;28;20248;-59
2023/04/03 09:21:49;;;;;;;1.23;1.00;;;;;;;;;;6274481;28;20191;-60
2023/04/03 09:24:58;;;;;;;2.10;1.13;;;;;;;;;;6255721;28;20262;-59
2023/04/03 09:28:01;;;;;;;0.90;0.90;;;;;;;;;;6290744;28;20281;-60
2023/04/03 09:31:02;;;;;;;1.10;1.00;;;;;;;;;;6281675;28;20198;-60
2023/04/03 09:34:06;;;;;;;1.20;1.10;;;;;;;;;;6256676;28;20245;-60
2023/04/03 09:37:08;;;;;;;1.60;1.20;;;;;;;;;;6254624;28;20218;-59
2023/04/03 09:40:28;;;;;;;2.10;1.03;;;;;;;;;;6276504;28;20259;-58
2023/04/03 09:43:31;;;;;;;1.43;1.30;;;;;;;;;;6253490;28;20207;-59
2023/04/03 09:46:34;;;;;;;1.10;1.00;;;;;;;;;;6287424;28;20657;-59
2023/04/03 09:49:35;;;;;;;1.83;1.30;;;;;;;;;;6259220;28;20194;-59
2023/04/03 09:52:36;;;;;;;1.20;1.10;;;;;;;;;;6273433;28;20189;-59
2023/04/03 09:55:43;;;;;;;1.30;1.10;;;;;;;;;;6246580;28;20201;-59
2023/04/03 09:58:49;;;;;;;1.20;1.10;;;;;;;;;;6288610;28;20217;-59
2023/04/03 10:02:17;;;;;;;1.40;0.87;;;;;;;;;;6291760;28;20201;-59
2023/04/03 10:05:38;;;;;;;1.30;1.07;;;;;;;;;;6269848;28;20193;-60
2023/04/03 10:08:40;;;;;;;1.30;1.20;;;;;;;;;;6283953;28;20223;-58
2023/04/03 10:11:57;;;;;;;1.20;1.10;;;;;;;;;;6294387;28;20189;-59
2023/04/03 10:15:00;;;;;;;1.17;0.90;;;;;;;;;;6280523;28;20285;-60
2023/04/03 10:18:03;;;;;;;1.20;1.10;;;;;;;;;;6289071;28;20241;-60
2023/04/03 10:21:12;;;;;;;1.53;1.10;;;;;;;;;;6276276;28;20190;-58
2023/04/03 10:24:25;;;;;;;1.53;1.10;;;;;;;;;;6279421;28;20209;-59
2023/04/03 10:27:29;;;;;;;1.97;1.30;;;;;;;;;;6289998;28;20193;-58
2023/04/03 10:30:43;;;;;;;0.93;0.77;;;;;;;;;;6288190;28;20186;-59
2023/04/03 10:33:54;;;;;;;1.20;1.00;;;;;;;;;;6286505;28;20272;-59
2023/04/03 10:36:55;;;;;;;1.13;1.03;;;;;;;;;;6271952;28;20209;-58
2023/04/03 10:39:59;;;;;;;1.60;1.20;;;;;;;;;;6288145;28;20186;-59
2023/04/03 10:43:10;;;;;;;1.17;1.07;;;;;;;;;;6269846;28;20194;-59
2023/04/03 10:46:16;;;;;;;1.83;1.20;;;;;;;;;;6278316;28;20197;-59
2023/04/03 10:49:20;;;;;;;1.80;1.10;;;;;;;;;;6288649;28;20289;-59
2023/04/03 10:52:40;;;;;;;1.40;1.13;;;;;;;;;;6289705;28;20190;-59
2023/04/03 10:55:41;;;;;;;1.10;0.90;;;;;;;;;;6289025;28;20186;-59
2023/04/03 10:58:49;;;;;;;1.43;1.33;;;;;;;;;;6287249;28;20232;-59
2023/04/03 11:01:52;;;;;;;1.10;1.00;;;;;;;;;;6280806;28;20193;-59
2023/04/03 11:05:09;;;;;;;1.63;1.10;;;;;;;;;;6272137;28;20501;-60
2023/04/03 11:08:14;;;;;;;1.30;1.20;;;;;;;;;;6285858;28;20194;-60
2023/04/03 11:11:21;;;;;;;1.70;1.20;;;;;;;;;;6288034;28;20276;-59
2023/04/03 11:14:29;;;;;;;1.20;1.10;;;;;;;;;;6271379;28;20194;-60
2023/04/03 11:17:36;;;;;;;1.00;1.00;;;;;;;;;;6249941;28;20215;-60
2023/04/03 11:20:37;;;;;;;1.13;0.97;;;;;;;;;;6275062;28;20250;-59
2023/04/03 11:23:40;;;;;;;1.70;0.93;;;;;;;;;;6287633;28;20284;-59
2023/04/03 11:26:42;;;;;;;1.80;1.00;;;;;;;;;;6256794;28;20206;-59
2023/04/03 11:29:45;;;;;;;1.10;1.00;;;;;;;;;;6283102;28;20270;-59
2023/04/03 11:33:01;;;;;;;1.03;0.90;;;;;;;;;;6285916;28;20263;-59
2023/04/03 11:36:10;;;;;;;1.00;0.90;;;;;;;;;;6261302;28;20194;-58
2023/04/03 11:39:22;;;;;;;0.97;0.87;;;;;;;;;;6273393;28;20233;-60
2023/04/03 11:42:27;;;;;;;0.87;0.87;;;;;;;;;;6289943;28;20221;-58
2023/04/03 11:45:32;;;;;;;0.93;0.93;;;;;;;;;;6272777;28;20196;-59
2023/04/03 11:48:36;;;;;;;1.80;1.10;;;;;;;;;;6272853;28;20244;-59
2023/04/03 11:51:41;;;;;;;1.23;1.00;;;;;;;;;;6270114;28;20205;-59
2023/04/03 11:54:46;;;;;;;1.57;1.20;;;;;;;;;;6289754;28;20194;-59
2023/04/03 11:58:00;;;;;;;1.60;0.93;;;;;;;;;;6289323;28;20219;-60
2023/04/03 12:01:05;;;;;;;1.10;1.00;;;;;;;;;;6284029;28;20189;-60
2023/04/03 12:04:08;;;;;;;1.63;0.90;;;;;;;;;;6281750;28;20239;-60
2023/04/03 12:07:18;;;;;;;1.73;1.00;;;;;;;;;;6274359;28;20194;-60
2023/04/03 12:10:19;;;;;;;3.50;1.20;;;;;;;;;;6287398;28;20190;-61
2023/04/03 12:13:20;;;;;;;1.30;1.20;;;;;;;;;;6269998;28;20280;-59
2023/04/03 12:16:28;;;;;;;1.30;1.20;;;;;;;;;;6252588;28;20189;-59
2023/04/03 12:19:33;;;;;;;1.20;0.93;;;;;;;;;;6268629;28;20259;-60
2023/04/03 12:22:34;;;;;;;1.43;1.30;;;;;;;;;;6270068;28;20182;-60
2023/04/03 12:25:47;;;;;;;1.60;1.20;;;;;;;;;;6251200;28;20185;-60
2023/04/03 12:28:49;;;;;;;1.10;1.00;;;;;;;;;;6286881;28;20281;-60
2023/04/03 12:31:56;;;;;;;1.37;1.00;;;;;;;;;;6265613;28;20237;-60
2023/04/03 12:35:15;;;;;;;1.43;0.80;;;25.40;27.50;;;;;;6259312;28;20194;-61
2023/04/03 12:38:20;;;;;;;1.40;1.30;;;;;;;;;;6267770;28;20225;-59
2023/04/03 12:41:27;;;;;;;1.13;1.03;;;;;;;;;;6287167;28;20248;-60
2023/04/03 12:45:07;;;;;;;1.63;1.30;;;13.10;29.60;;;;;;6290945;28;20201;-59
2023/04/03 12:48:15;;;;;;;1.20;1.03;;;18.20;25.20;;;;;;6266527;28;20190;-59
2023/04/03 12:51:20;;;;;;;1.40;1.30;;;19.00;23.70;;;;;;6268826;28;20249;-59
2023/04/03 12:54:36;;;;;;;1.37;1.27;;;19.20;22.60;;;;;;6275219;28;20190;-60
2023/04/03 12:57:37;;;;;;;1.97;1.20;;;19.20;23.30;;;;;;6274367;28;20295;-60
2023/04/03 13:00:39;;;;;;;1.13;1.00;;;21.10;22.20;;;;;;6273049;28;20190;-60
2023/04/03 13:03:44;;;;;;;1.07;1.07;;;22.80;21.90;;;;;;6242296;28;20197;-60
2023/04/03 13:06:45;;;;;;;1.30;1.17;;;;;;;;;;6290727;28;20197;-60
2023/04/03 13:09:55;;;;;;;1.43;1.10;;;;;;;;;;6252239;28;20218;-59
2023/04/03 13:12:58;;;;;;;1.30;1.20;;;;;;;;;;6268403;28;20187;-59
2023/04/03 13:15:59;;;;;;;1.63;1.13;;;;;;;;;;6292367;28;20257;-60
2023/04/03 13:19:00;;;;;;;1.30;1.20;;;;;;;;;;6258517;28;20222;-59
2023/04/03 13:22:27;;;;;;;2.33;1.00;;;;;;;;;;6267712;28;20212;-59
2023/04/03 13:25:30;;;;;;;0.90;0.90;;;;;;;;;;6273810;28;20205;-59
2023/04/03 13:28:32;;;;;;;2.43;1.10;;;;;;;;;;6291005;28;20197;-60
2023/04/03 13:31:35;;;;;;;1.40;1.00;;;;;;;;;;6277653;28;20190;-60
2023/04/03 13:34:38;;;;;;;1.10;1.00;;;;;;;;;;6263860;28;20197;-59
2023/04/03 13:37:39;;;;;;;1.73;1.10;;;;;;;;;;6292645;28;20236;-60
2023/04/03 13:40:50;;;;;;;1.67;1.20;;;;;;;;;;6258254;28;20587;-62
2023/04/03 13:43:51;;;;;;;1.63;1.10;;;24.50;21.60;;;;;;6273788;28;20193;-61
2023/04/03 13:47:18;;;;;;;2.30;1.20;;;20.10;22.80;;;;;;6256891;28;20194;-60
2023/04/03 13:50:24;;;;;;;1.10;1.00;;;20.50;21.70;;;;;;6290479;28;20187;-59
2023/04/03 13:53:27;;;;;;;3.57;1.23;;;20.60;22.10;;;;;;6275575;28;20186;-60
2023/04/03 13:56:33;;;;;;;1.00;1.00;;;;;;;;;;6274673;28;20217;-59
2023/04/03 13:59:35;;;;;;;1.30;1.20;;;;;;;;;;6272213;28;20233;-60
2023/04/03 14:02:39;;;;;;;2.43;1.27;;;;;;;;;;6272999;28;20247;-58
2023/04/03 14:05:40;;;;;;;2.50;1.40;;;;;;;;;;6271388;28;20222;-61
2023/04/03 14:08:42;;;;;;;1.37;1.27;;;;;;;;;;6289174;28;20197;-61
2023/04/03 14:11:43;;;;;;;1.97;1.20;;;;;;;;;;6273753;28;20194;-60
2023/04/03 14:14:45;;;;;;;2.27;1.93;;;;;;;;;;6290364;28;20193;-60
2023/04/03 14:17:46;;;;;;;4.23;1.30;;;;;;;;;;6268356;28;20222;-61
2023/04/03 14:20:48;;;;;;;1.27;1.17;;;;;;;;;;6279673;28;20187;-59
2023/04/03 14:23:50;;;;;;;1.47;1.20;;;;;;;;;;6289831;28;20196;-60
2023/04/03 14:26:52;;;;;;;1.80;1.30;;;;;;;;;;6270239;28;20237;-60
2023/04/03 14:29:54;;;;;;;2.93;1.53;;;;;;;;;;6273394;28;20193;-60
2023/04/03 14:32:56;;;;;;;6.20;1.70;;;;;;;;;;6265154;28;20309;-60
2023/04/03 14:35:56;;;;;;;1.40;1.30;;;20.30;21.50;;;;;;6263057;28;20220;-60
2023/04/03 14:38:58;;;;;;;3.30;1.60;;;;;;;;;;6269799;28;20242;-60
2023/04/03 14:41:59;;;;;;;2.43;1.80;;;;;;;;;;6286525;28;20190;-60
2023/04/03 14:45:03;;;;;;;1.40;1.20;;;;;;;;;;6259358;28;20199;-60
2023/04/03 14:48:04;;;;;;;2.20;1.60;;;;;;;;;;6261614;28;20194;-60
2023/04/03 14:51:05;;;;;;;1.23;1.13;;;;;;;;;;6278871;28;20219;-60
2023/04/03 14:54:06;;;;;;;1.30;1.13;;;;;;;;;;6273068;28;20193;-61
2023/04/03 14:57:09;;;;;;;1.47;1.37;;;;;;;;;;6273111;28;20195;-61
2023/04/03 15:00:19;;;;;;;1.63;1.30;;;15.20;25.10;;;;;;6289221;28;20214;-60
2023/04/03 15:03:23;;;;;;;1.30;1.20;;;14.70;25.90;;;;;;6260088;28;20285;-61
2023/04/03 15:06:25;;;;;;;1.73;1.43;;;15.30;24.80;;;;;;6247283;28;20205;-60
2023/04/03 15:09:27;;;;;;;1.70;1.30;;;15.50;25.40;;;;;;6270904;28;20297;-59
2023/04/03 15:12:27;;;;;;;1.70;1.30;;;16.40;24.30;;;;;;6256311;28;20200;-63
2023/04/03 15:15:30;;;;;;;1.40;1.20;;;;;;;;;;6251946;28;20251;-63
2023/04/03 15:18:33;;;;;;;1.80;1.20;;;;;;;;;;6282903;28;20210;-61
2023/04/03 15:21:34;;;;;;;1.60;1.20;;;;;;;;;;6273221;28;20213;-61
2023/04/03 15:24:35;;;;;;;2.60;1.30;;;;;;;;;;6253506;28;20192;-60
2023/04/03 15:27:37;;;;;;;1.40;1.30;;;;;;;;;;6244089;28;20189;-61
2023/04/03 15:30:40;;;;;;;1.50;1.40;;;;;;;;;;6282959;28;20280;-60
2023/04/03 15:33:41;;;;;;;1.60;1.43;;;;;;;;;;6253754;28;20237;-59
2023/04/03 15:36:42;;;;;;;1.80;1.30;;;;;;;;;;6273662;28;20199;-59
2023/04/03 15:39:43;;;;;;;1.93;1.30;;;;;;;;;;6250410;28;20229;-59
2023/04/03 15:42:44;;;;;;;1.37;1.27;;;;;;;;;;6259605;28;20678;-59
2023/04/03 15:45:45;;;;;;;2.10;1.47;;;;;;;;;;6272539;28;20235;-60
2023/04/03 15:48:46;;;;;;;1.40;1.27;;;;;;;;;;6252155;28;20209;-61
2023/04/03 15:51:48;;;;;;;1.57;1.30;;;;;;;;;;6256906;28;20187;-59
2023/04/03 15:54:49;;;;;;;2.73;1.50;;;;;;;;;;6271920;28;20304;-61
2023/04/03 15:57:50;;;;;;;1.90;1.80;;;;;;;;;;6257906;28;20304;-60
2023/04/03 16:00:51;;;;;;;1.77;1.30;;;;;;;;;;6270260;28;20332;-60
2023/04/03 16:03:53;;;;;;;1.80;1.47;;;;;;;;;;6287240;28;20196;-60
2023/04/03 16:06:54;;;;;;;1.70;1.50;;;;;;;;;;6278627;28;20186;-60
2023/04/03 16:09:55;;;;;;;2.30;1.60;;;;;;;;;;6266776;28;20216;-61
2023/04/03 16:12:56;;;;;;;2.63;1.60;;;;;;;;;;6250001;28;20202;-61
2023/04/03 16:15:57;;;;;;;1.87;1.77;;;;;;;;;;6269274;28;20265;-60
2023/04/03 16:18:58;;;;;;;1.60;1.50;;;;;;;;;;6248457;28;20226;-61
2023/04/03 16:21:59;;;;;;;1.83;1.73;;;;;;;;;;6252328;28;20197;-60
2023/04/03 16:25:01;;;;;;;3.47;2.00;;;;;;;;;;6252914;28;20211;-60
2023/04/03 16:28:03;;;;;;;2.77;1.90;;;;;;;;;;6286373;28;20317;-61
2023/04/03 16:31:05;;;;;;;2.80;1.70;;;;;;;;;;6270757;28;20190;-61
2023/04/03 16:34:06;;;;;;;2.43;1.80;;;;;;;;;;6287544;28;20311;-60
2023/04/03 16:37:08;;;;;;;2.10;1.90;;;;;;;;;;6287179;28;20208;-61
2023/04/03 16:40:11;;;;;;;1.70;1.60;;;;;;;;;;6248805;28;20201;-59
2023/04/03 16:43:12;;;;;;;1.83;1.73;;;;;;;;;;6252000;28;20273;-59
2023/04/03 16:46:13;;;;;;;2.10;1.90;;;;;;;;;;6273841;28;20273;-59
2023/04/03 16:49:14;;;;;;;3.40;1.83;;;;;;;;;;6286001;28;20213;-62
2023/04/03 16:52:16;;;;;;;4.13;2.00;;;;;;;;;;6252352;28;20201;-58
2023/04/03 16:55:17;;;;;;;3.53;1.80;;;;;;;;;;6251456;28;20198;-58
2023/04/03 16:58:18;;;;;;;2.53;2.07;;;;;;;;;;6246732;28;20221;-58
2023/04/03 17:01:19;;;;;;;3.73;1.90;;;;;;;;;;6280460;28;20205;-62
2023/04/03 17:04:20;;;;;;;3.17;2.10;;;;;;;;;;6285510;28;20247;-64
2023/04/03 17:07:22;;;;;;;2.20;2.00;;;;;;;;;;6276299;28;20197;-64
2023/04/03 17:10:24;;;;;;;2.77;2.23;;;;;;;;;;6267386;28;20262;-64
2023/04/03 17:13:30;;;;;;;2.60;1.97;;;;;;;;;;6287912;28;20277;-64
2023/04/03 17:16:33;;;;;;;2.57;1.83;;;;;;;;;;6264739;28;20198;-66
2023/04/03 17:19:35;;;;;;;2.83;2.30;;;;;;;;;;6263891;28;20264;-66
2023/04/03 17:22:36;;;;;;;2.67;2.07;;;;;;;;;;6263422;28;20197;-66
2023/04/03 17:25:37;;;;;;;2.90;2.30;;;;;;;;;;6252123;28;20201;-64
2023/04/03 17:28:40;;;;;;;2.60;2.20;;;;;;;;;;6254743;28;20193;-61
2023/04/03 17:31:41;;;;;;;2.57;2.13;;;;;;;;;;6251637;28;20256;-60
2023/04/03 17:34:43;;;;;;;3.23;2.10;;;;;;;;;;6259450;28;20205;-60
2023/04/03 17:37:44;;;;;;;3.57;2.57;;;;;;;;;;6250825;28;20227;-60
2023/04/03 17:40:45;;;;;;;3.00;2.60;;;;;;;;;;6271945;28;20182;-61
2023/04/03 17:43:46;;;;;;;5.47;3.03;;;;;;;;;;6251026;28;20216;-60
2023/04/03 17:46:47;;;;;;;4.17;3.77;;;;;;;;;;6258528;28;20240;-62
2023/04/03 17:49:50;;;;;;;3.67;2.43;;;;;;;;;;6253854;28;20202;-60
2023/04/03 17:52:51;;;;;;;4.37;2.80;;;;;;;;;;6288380;28;20196;-60
2023/04/03 17:55:52;;;;;;;4.03;2.40;;;;;;;;;;6273912;28;20194;-60
2023/04/03 17:58:55;;;;;;;2.87;2.57;;;;;;;;;;6257843;28;20223;-60
2023/04/03 18:01:56;;;;;;;4.00;2.50;;;;;;;;;;6273496;28;20192;-61
2023/04/03 18:04:57;;;;;;;2.20;2.00;;;;;;;;;;6249567;28;20216;-61
2023/04/03 18:08:00;;;;;;;2.30;2.10;;;;;;;;;;6273810;28;20197;-60